createdAt,value
2022-11-03T00:00:08.755Z,1007
2022-11-03T00:03:06.243Z,1007
2022-11-03T00:06:05.212Z,1007
2022-11-03T00:09:05.174Z,1007
2022-11-03T00:12:05.102Z,1007
2022-11-03T00:15:05.120Z,1007
2022-11-03T00:18:05.121Z,1007
2022-11-03T00:21:05.178Z,1007
2022-11-03T00:24:05.165Z,1007
2022-11-03T00:27:05.212Z,1007
2022-11-03T00:30:05.192Z,1007
2022-11-03T00:33:05.673Z,1007
2022-11-03T00:36:05.147Z,1007
2022-11-03T00:39:05.176Z,1007
2022-11-03T00:42:05.169Z,1007
2022-11-03T00:45:05.185Z,1007
2022-11-03T00:48:05.186Z,1007
2022-11-03T00:51:05.126Z,1007
2022-11-03T00:54:05.204Z,1007
2022-11-03T00:57:05.102Z,1007
2022-11-03T01:00:05.221Z,1007
2022-11-03T01:03:05.629Z,1007
2022-11-03T01:06:05.121Z,1007
2022-11-03T01:09:05.128Z,1007
2022-11-03T01:12:05.209Z,1007
2022-11-03T01:15:05.183Z,1007
2022-11-03T01:18:05.112Z,1007
2022-11-03T01:21:05.113Z,1007
2022-11-03T01:24:05.141Z,1007
2022-11-03T01:27:05.113Z,1007
2022-11-03T01:30:05.134Z,1007
2022-11-03T01:33:05.641Z,1007
2022-11-03T01:36:05.177Z,1007
2022-11-03T01:39:05.161Z,1007
2022-11-03T01:42:05.139Z,1006
2022-11-03T01:45:05.164Z,1006
2022-11-03T01:48:05.175Z,1006
2022-11-03T01:51:05.116Z,1006
2022-11-03T01:54:05.186Z,1006
2022-11-03T01:57:05.101Z,1006
2022-11-03T02:00:05.231Z,1006
2022-11-03T02:03:05.690Z,1006
2022-11-03T02:06:05.142Z,1006
2022-11-03T02:09:05.192Z,1006
2022-11-03T02:12:05.186Z,1006
2022-11-03T02:15:05.189Z,1006
2022-11-03T02:18:05.196Z,1006
2022-11-03T02:21:05.149Z,1006
2022-11-03T02:24:05.112Z,1006
2022-11-03T02:27:05.121Z,1006
2022-11-03T02:30:05.144Z,1006
2022-11-03T02:33:05.531Z,1006
2022-11-03T02:36:05.104Z,1006
2022-11-03T02:39:05.196Z,1006
2022-11-03T02:42:05.175Z,1006
2022-11-03T02:45:05.223Z,1006
2022-11-03T02:48:05.162Z,1006
2022-11-03T02:51:05.106Z,1006
2022-11-03T02:54:05.156Z,1006
2022-11-03T02:57:05.109Z,1006
2022-11-03T03:00:05.190Z,1006
2022-11-03T03:03:05.818Z,1006
2022-11-03T03:06:05.195Z,1006
2022-11-03T03:09:05.141Z,1006
2022-11-03T03:12:05.176Z,1006
2022-11-03T03:15:05.273Z,1006
2022-11-03T03:18:05.160Z,1006
2022-11-03T03:21:05.117Z,1006
2022-11-03T03:24:06.003Z,1005
2022-11-03T03:27:05.116Z,1005
2022-11-03T03:30:05.256Z,1005
2022-11-03T03:33:05.393Z,1005
2022-11-03T03:36:05.193Z,1005
2022-11-03T03:39:05.168Z,1005
2022-11-03T03:42:05.168Z,1005
2022-11-03T03:45:05.223Z,1005
2022-11-03T03:48:05.222Z,1005
2022-11-03T03:51:05.185Z,1005
2022-11-03T03:54:05.132Z,1005
2022-11-03T03:57:05.584Z,1005
2022-11-03T04:00:05.303Z,1005
2022-11-03T04:03:05.275Z,1005
2022-11-03T04:06:05.296Z,1005
2022-11-03T04:09:05.212Z,1005
2022-11-03T04:12:05.114Z,1005
2022-11-03T04:15:05.180Z,1005
2022-11-03T04:18:05.813Z,1005
2022-11-03T04:21:05.188Z,1005
2022-11-03T04:24:05.243Z,1005
2022-11-03T04:27:06.023Z,1004
2022-11-03T04:30:05.231Z,1004
2022-11-03T04:33:05.154Z,1004
2022-11-03T04:36:05.145Z,1004
2022-11-03T04:39:05.182Z,1004
2022-11-03T04:42:05.292Z,1004
2022-11-03T04:45:05.209Z,1004
2022-11-03T04:48:05.142Z,1004
2022-11-03T04:51:05.132Z,1004
2022-11-03T04:54:05.223Z,1004
2022-11-03T04:57:05.191Z,1004
2022-11-03T05:00:05.241Z,1004
2022-11-03T05:03:05.251Z,1004
2022-11-03T05:06:05.177Z,1004
2022-11-03T05:09:05.140Z,1004
2022-11-03T05:12:05.241Z,1004
2022-11-03T05:15:05.142Z,1004
2022-11-03T05:18:05.187Z,1004
2022-11-03T05:21:05.143Z,1004
2022-11-03T05:24:05.458Z,1004
2022-11-03T05:27:05.208Z,1004
2022-11-03T05:30:05.902Z,1004
2022-11-03T05:33:05.225Z,1004
2022-11-03T05:36:05.144Z,1004
2022-11-03T05:39:05.210Z,1004
2022-11-03T05:42:05.237Z,1004
2022-11-03T05:45:05.116Z,1004
2022-11-03T05:48:05.384Z,1004
2022-11-03T05:51:05.150Z,1004
2022-11-03T05:54:05.102Z,1004
2022-11-03T05:57:05.104Z,1004
2022-11-03T06:00:05.459Z,1004
2022-11-03T06:03:05.396Z,1004
2022-11-03T06:06:05.140Z,1004
2022-11-03T06:09:05.171Z,1004
2022-11-03T06:12:05.125Z,1004
2022-11-03T06:15:05.188Z,1004
2022-11-03T06:18:05.198Z,1004
2022-11-03T06:21:05.204Z,1004
2022-11-03T06:24:05.152Z,1004
2022-11-03T06:27:05.181Z,1004
2022-11-03T06:30:05.773Z,1004
2022-11-03T06:33:05.793Z,1004
2022-11-03T06:36:05.180Z,1004
2022-11-03T06:39:05.195Z,1004
2022-11-03T06:42:05.252Z,1004
2022-11-03T06:45:05.240Z,1004
2022-11-03T06:48:05.180Z,1004
2022-11-03T06:51:05.209Z,1004
2022-11-03T06:54:05.231Z,1004
2022-11-03T06:57:05.201Z,1004
2022-11-03T07:00:44.826Z,1004
2022-11-03T07:03:05.350Z,1003
2022-11-03T07:06:05.240Z,1004
2022-11-03T07:09:05.182Z,1004
2022-11-03T07:12:05.276Z,1004
2022-11-03T07:18:05.710Z,1004
2022-11-03T07:21:05.147Z,1004
2022-11-03T07:24:05.231Z,1004
2022-11-03T07:27:05.191Z,1004
2022-11-03T07:30:05.240Z,1003
2022-11-03T07:33:05.205Z,1003
2022-11-03T07:36:21.369Z,1003
2022-11-03T07:39:05.245Z,1003
2022-11-03T07:42:05.162Z,1003
2022-11-03T07:45:05.224Z,1003
2022-11-03T07:48:09.823Z,1003
2022-11-03T07:51:05.172Z,1003
2022-11-03T07:54:05.206Z,1003
2022-11-03T07:57:05.216Z,1003
2022-11-03T08:00:12.889Z,1003
2022-11-03T08:03:05.918Z,1003
2022-11-03T08:06:14.609Z,1003
2022-11-03T08:09:05.225Z,1002
2022-11-03T08:12:05.354Z,1002
2022-11-03T08:15:05.242Z,1002
2022-11-03T08:18:05.205Z,1002
2022-11-03T08:21:05.222Z,1002
2022-11-03T08:24:05.253Z,1002
2022-11-03T08:27:05.153Z,1002
2022-11-03T08:30:05.344Z,1002
2022-11-03T08:33:05.603Z,1002
2022-11-03T08:36:05.170Z,1002
2022-11-03T08:39:05.152Z,1002
2022-11-03T08:42:05.316Z,1002
2022-11-03T08:45:05.302Z,1002
2022-11-03T08:48:05.588Z,1002
2022-11-03T08:51:05.141Z,1002
2022-11-03T08:54:05.267Z,1002
2022-11-03T08:57:05.133Z,1002
2022-11-03T09:00:05.356Z,1002
2022-11-03T09:03:05.217Z,1002
2022-11-03T09:06:05.257Z,1002
2022-11-03T09:12:05.216Z,1002
2022-11-03T09:15:05.212Z,1002
2022-11-03T09:18:05.633Z,1002
2022-11-03T09:21:05.144Z,1002
2022-11-03T09:24:05.225Z,1002
2022-11-03T09:27:07.086Z,1002
2022-11-03T09:30:18.487Z,1001
2022-11-03T09:33:05.124Z,1001
2022-11-03T09:36:05.212Z,1001
2022-11-03T09:39:05.154Z,1001
2022-11-03T09:42:05.333Z,1001
2022-11-03T09:45:05.619Z,1001
2022-11-03T09:48:05.883Z,1001
2022-11-03T09:51:05.535Z,1002
2022-11-03T09:54:05.251Z,1002
2022-11-03T09:57:05.315Z,1002
2022-11-03T10:00:05.364Z,1002
2022-11-03T10:03:05.816Z,1001
2022-11-03T10:06:05.820Z,1001
2022-11-03T10:09:05.223Z,1001
2022-11-03T10:12:05.209Z,1001
2022-11-03T10:15:05.273Z,1001
2022-11-03T10:18:05.298Z,1001
2022-11-03T10:21:05.231Z,1001
2022-11-03T10:24:05.263Z,1001
2022-11-03T10:27:05.251Z,1001
2022-11-03T10:30:05.504Z,1001
2022-11-03T10:33:05.381Z,1001
2022-11-03T10:36:05.240Z,1001
2022-11-03T10:39:05.181Z,1001
2022-11-03T10:42:05.250Z,1001
2022-11-03T10:45:05.227Z,1001
2022-11-03T10:48:05.625Z,1001
2022-11-03T10:51:05.171Z,1001
2022-11-03T10:54:05.161Z,1000
2022-11-03T10:57:05.252Z,1000
2022-11-03T11:00:05.342Z,1000
2022-11-03T11:03:05.484Z,1000
2022-11-03T11:06:05.205Z,1000
2022-11-03T11:09:05.151Z,1000
2022-11-03T11:12:05.345Z,1000
2022-11-03T11:15:05.213Z,1000
2022-11-03T11:18:05.217Z,1000
2022-11-03T11:21:05.173Z,1000
2022-11-03T11:24:05.188Z,1000
2022-11-03T11:27:05.157Z,1000
2022-11-03T11:30:05.344Z,1000
2022-11-03T11:33:05.514Z,1000
2022-11-03T11:36:05.152Z,1000
2022-11-03T11:39:05.157Z,999
2022-11-03T11:42:05.175Z,999
2022-11-03T11:45:05.348Z,1000
2022-11-03T11:48:05.203Z,999
2022-11-03T11:51:05.163Z,999
2022-11-03T11:54:22.741Z,999
2022-11-03T11:57:05.248Z,999
2022-11-03T12:00:05.306Z,999
2022-11-03T12:03:06.025Z,999
2022-11-03T12:06:05.128Z,999
2022-11-03T12:09:05.329Z,999
2022-11-03T12:12:13.179Z,999
2022-11-03T12:15:05.238Z,999
2022-11-03T12:18:05.561Z,999
2022-11-03T12:21:05.539Z,998
2022-11-03T12:24:05.191Z,998
2022-11-03T12:27:05.218Z,998
2022-11-03T12:30:05.282Z,998
2022-11-03T12:33:05.463Z,998
2022-11-03T12:36:05.239Z,998
2022-11-03T12:39:05.169Z,998
2022-11-03T12:42:05.201Z,998
2022-11-03T12:45:05.439Z,998
2022-11-03T12:48:05.245Z,998
2022-11-03T12:51:05.214Z,998
2022-11-03T12:54:05.181Z,998
2022-11-03T12:57:05.147Z,998
2022-11-03T13:00:05.253Z,998
2022-11-03T13:03:05.473Z,998
2022-11-03T13:06:05.242Z,998
2022-11-03T13:09:05.296Z,998
2022-11-03T13:12:05.319Z,998
2022-11-03T13:15:05.291Z,998
2022-11-03T13:18:18.866Z,997
2022-11-03T13:21:05.239Z,997
2022-11-03T13:24:05.198Z,997
2022-11-03T13:27:05.226Z,997
2022-11-03T13:30:05.286Z,997
2022-11-03T13:33:05.469Z,997
2022-11-03T13:36:05.497Z,997
2022-11-03T13:39:05.252Z,997
2022-11-03T13:42:05.341Z,997
2022-11-03T13:45:05.531Z,997
2022-11-03T13:51:05.819Z,997
2022-11-03T14:00:09.754Z,997
2022-11-03T14:06:05.244Z,997
2022-11-03T14:09:05.145Z,997
2022-11-03T14:12:05.256Z,996
2022-11-03T14:15:05.308Z,996
2022-11-03T14:18:05.165Z,996
2022-11-03T14:21:05.257Z,996
2022-11-03T14:24:05.178Z,996
2022-11-03T14:27:05.271Z,996
2022-11-03T14:30:05.259Z,996
2022-11-03T14:33:05.216Z,996
2022-11-03T14:36:05.296Z,996
2022-11-03T14:39:05.246Z,997
2022-11-03T14:42:05.299Z,997
2022-11-03T14:45:05.232Z,996
2022-11-03T14:48:05.636Z,996
2022-11-03T14:51:05.211Z,996
2022-11-03T14:54:05.252Z,996
2022-11-03T14:57:05.233Z,996
2022-11-03T15:00:05.496Z,995
2022-11-03T15:03:05.199Z,995
2022-11-03T15:06:05.353Z,995
2022-11-03T15:09:06.250Z,995
2022-11-03T15:12:05.232Z,995
2022-11-03T15:15:05.224Z,995
2022-11-03T15:18:07.899Z,995
2022-11-03T15:21:05.185Z,995
2022-11-03T15:27:05.177Z,995
2022-11-03T15:30:05.433Z,995
2022-11-03T15:33:05.419Z,995
2022-11-03T15:36:05.787Z,995
2022-11-03T15:39:05.208Z,995
2022-11-03T15:42:05.321Z,995
2022-11-03T15:45:05.237Z,995
2022-11-03T15:48:05.168Z,995
2022-11-03T15:51:05.162Z,994
2022-11-03T15:54:05.189Z,994
2022-11-03T15:57:05.604Z,994
2022-11-03T16:00:05.236Z,994
2022-11-03T16:03:05.785Z,994
2022-11-03T16:06:05.258Z,994
2022-11-03T16:09:05.183Z,994
2022-11-03T16:12:05.665Z,994
2022-11-03T16:15:05.168Z,994
2022-11-03T16:18:05.476Z,994
2022-11-03T16:21:05.368Z,994
2022-11-03T16:24:05.234Z,995
2022-11-03T16:27:05.118Z,995
2022-11-03T16:30:05.319Z,995
2022-11-03T16:33:05.223Z,995
2022-11-03T16:36:05.284Z,995
2022-11-03T16:39:05.206Z,994
2022-11-03T16:42:05.198Z,994
2022-11-03T16:45:05.274Z,994
2022-11-03T16:48:05.574Z,994
2022-11-03T16:51:05.203Z,994
2022-11-03T16:54:05.205Z,994
2022-11-03T16:57:05.468Z,994
2022-11-03T17:00:05.385Z,994
2022-11-03T17:03:05.549Z,994
2022-11-03T17:06:05.131Z,994
2022-11-03T17:09:05.322Z,994
2022-11-03T17:12:05.231Z,993
2022-11-03T17:15:05.267Z,993
2022-11-03T17:18:05.427Z,994
2022-11-03T17:21:05.245Z,994
2022-11-03T17:24:05.279Z,993
2022-11-03T17:27:05.211Z,993
2022-11-03T17:30:05.213Z,993
2022-11-03T17:33:05.242Z,993
2022-11-03T17:36:05.199Z,993
2022-11-03T17:39:05.122Z,993
2022-11-03T17:42:05.225Z,993
2022-11-03T17:45:05.199Z,993
2022-11-03T17:48:05.277Z,993
2022-11-03T17:51:05.177Z,993
2022-11-03T17:54:05.539Z,993
2022-11-03T17:57:05.190Z,993
2022-11-03T18:00:05.353Z,993
2022-11-03T18:03:05.478Z,993
2022-11-03T18:06:05.335Z,993
2022-11-03T18:09:05.163Z,993
2022-11-03T18:12:05.313Z,993
2022-11-03T18:15:05.177Z,993
2022-11-03T18:18:05.486Z,993
2022-11-03T18:21:05.228Z,993
2022-11-03T18:24:05.242Z,993
2022-11-03T18:27:05.145Z,992
2022-11-03T18:30:05.376Z,992
2022-11-03T18:33:05.647Z,992
2022-11-03T18:36:05.271Z,992
2022-11-03T18:39:05.480Z,992
2022-11-03T18:42:05.373Z,992
2022-11-03T18:45:07.720Z,992
2022-11-03T18:48:05.193Z,992
2022-11-03T18:51:05.230Z,992
2022-11-03T18:54:05.216Z,992
2022-11-03T18:57:05.211Z,992
2022-11-03T19:00:05.363Z,992
2022-11-03T19:03:05.284Z,992
2022-11-03T19:06:05.457Z,992
2022-11-03T19:09:05.144Z,992
2022-11-03T19:12:05.236Z,992
2022-11-03T19:15:05.255Z,992
2022-11-03T19:18:05.556Z,992
2022-11-03T19:21:05.272Z,992
2022-11-03T19:24:05.149Z,992
2022-11-03T19:27:05.161Z,992
2022-11-03T19:30:05.200Z,992
2022-11-03T19:33:05.461Z,991
2022-11-03T19:36:05.132Z,991
2022-11-03T19:39:05.144Z,991
2022-11-03T19:42:05.147Z,991
2022-11-03T19:45:05.457Z,991
2022-11-03T19:48:30.649Z,991
2022-11-03T19:51:05.136Z,991
2022-11-03T19:54:05.193Z,991
2022-11-03T19:57:05.192Z,991
2022-11-03T20:00:05.181Z,991
2022-11-03T20:03:05.182Z,991
2022-11-03T20:06:05.224Z,991
2022-11-03T20:09:05.165Z,991
2022-11-03T20:12:05.280Z,991
2022-11-03T20:15:05.163Z,991
2022-11-03T20:18:05.308Z,991
2022-11-03T20:21:05.181Z,991
2022-11-03T20:24:05.261Z,991
2022-11-03T20:27:05.232Z,991
2022-11-03T20:30:05.300Z,991
2022-11-03T20:33:05.467Z,991
2022-11-03T20:36:05.168Z,991
2022-11-03T20:39:05.186Z,990
2022-11-03T20:42:05.202Z,990
2022-11-03T20:45:05.193Z,990
2022-11-03T20:48:05.567Z,990
2022-11-03T20:51:05.328Z,990
2022-11-03T20:54:05.246Z,990
2022-11-03T20:57:05.219Z,990
2022-11-03T21:00:05.416Z,991
2022-11-03T21:03:05.485Z,991
2022-11-03T21:06:05.302Z,991
2022-11-03T21:09:05.197Z,991
2022-11-03T21:12:05.163Z,991
2022-11-03T21:15:05.257Z,991
2022-11-03T21:18:05.204Z,991
2022-11-03T21:21:08.311Z,991
2022-11-03T21:24:05.177Z,991
2022-11-03T21:27:05.240Z,991
2022-11-03T21:30:05.324Z,991
2022-11-03T21:33:05.458Z,991
2022-11-03T21:36:05.155Z,991
2022-11-03T21:39:05.244Z,991
2022-11-03T21:42:05.165Z,991
2022-11-03T21:45:05.252Z,991
2022-11-03T21:48:08.706Z,991
2022-11-03T21:51:05.238Z,991
2022-11-03T21:54:05.222Z,991
2022-11-03T21:57:05.174Z,991
2022-11-03T22:00:05.258Z,991
2022-11-03T22:03:05.443Z,991
2022-11-03T22:06:05.162Z,991
2022-11-03T22:09:05.200Z,991
2022-11-03T22:12:05.169Z,991
2022-11-03T22:15:05.160Z,991
2022-11-03T22:18:05.445Z,991
2022-11-03T22:21:05.316Z,991
2022-11-03T22:24:05.176Z,991
2022-11-03T22:27:05.272Z,991
2022-11-03T22:30:05.195Z,991
2022-11-03T22:33:05.123Z,991
2022-11-03T22:36:05.223Z,991
2022-11-03T22:39:05.254Z,991
2022-11-03T22:42:11.193Z,991
2022-11-03T22:45:05.162Z,990
2022-11-03T22:48:05.226Z,990
2022-11-03T22:51:05.156Z,990
2022-11-03T22:54:05.186Z,990
2022-11-03T22:57:05.240Z,990
2022-11-03T23:00:05.729Z,990
2022-11-03T23:03:05.383Z,990
2022-11-03T23:06:05.190Z,990
2022-11-03T23:09:05.155Z,990
2022-11-03T23:12:05.194Z,990
2022-11-03T23:15:05.341Z,990
2022-11-03T23:18:05.185Z,990
2022-11-03T23:21:05.135Z,990
2022-11-03T23:24:05.152Z,990
2022-11-03T23:27:05.111Z,990
2022-11-03T23:30:05.229Z,990
2022-11-03T23:33:05.632Z,990
2022-11-03T23:36:05.219Z,990
2022-11-03T23:39:05.233Z,990
2022-11-03T23:42:05.204Z,990
2022-11-03T23:45:05.192Z,990
2022-11-03T23:48:05.273Z,990
2022-11-03T23:51:05.168Z,990
2022-11-03T23:54:05.225Z,989
2022-11-03T23:57:05.266Z,990
